Burns Flat, Oklahoma
Current Conditions -  °F | °C
As of 3:53 AM on Thursday 29 Jan 2015 (Local Time) from KCSM Reporting Station
Clear Clear  
Wind Chill: 50°   Ceiling: Unl
Heat Index: 50°   Visibility: 10mi
Dew Point: 34°   Wind: 17mph
Humidity: 54%   Direction: 340°NNW
Pressure: 30.19"   Gusts: NA
Location:  35.35°N, 99.17°W
Report Text: KCSM 290953Z AUTO 34015KT 10SM CLR 10/01 A3019 RMK AO2 SLP212 T01000011
Loading
Personal Weather Stations






























Interactive Weather Map New forecast layout! Learn more

10-Day Weather Forecast

Advertisements
Track Severe Weather on mobile